RJTQ(METAR)
04/24 09:00
RJTQ 240000Z 16016KT 9999 SCT015 BKN025 20/16 Q1019 RMK A3010=
戻る
トップページへ戻る
IMOC Co,.Ltd.